sensor_id;sensor_type;location;lat;lon;timestamp;P1;durP1;ratioP1;P2;durP2;ratioP2
39956;SDS011;48483;44.640;7.494;2022-07-09T00:01:02;3.40;;;1.80;;
39956;SDS011;48483;44.640;7.494;2022-07-09T00:03:29;2.92;;;1.90;;
39956;SDS011;48483;44.640;7.494;2022-07-09T00:05:56;3.63;;;2.15;;
39956;SDS011;48483;44.640;7.494;2022-07-09T00:08:23;2.70;;;2.10;;
39956;SDS011;48483;44.640;7.494;2022-07-09T00:10:50;3.15;;;1.85;;
39956;SDS011;48483;44.640;7.494;2022-07-09T00:13:16;3.40;;;1.77;;
39956;SDS011;48483;44.640;7.494;2022-07-09T00:15:43;2.65;;;1.88;;
39956;SDS011;48483;44.640;7.494;2022-07-09T00:18:11;5.72;;;2.30;;
39956;SDS011;48483;44.640;7.494;2022-07-09T00:20:38;4.55;;;2.05;;
39956;SDS011;48483;44.640;7.494;2022-07-09T00:23:05;5.03;;;2.63;;
39956;SDS011;48483;44.640;7.494;2022-07-09T00:25:32;5.22;;;2.17;;
39956;SDS011;48483;44.640;7.494;2022-07-09T00:27:59;4.15;;;1.88;;
39956;SDS011;48483;44.640;7.494;2022-07-09T00:30:25;4.70;;;2.15;;
39956;SDS011;48483;44.640;7.494;2022-07-09T00:32:52;4.28;;;2.10;;
39956;SDS011;48483;44.640;7.494;2022-07-09T00:35:20;2.88;;;1.92;;
39956;SDS011;48483;44.640;7.494;2022-07-09T00:37:47;3.55;;;1.80;;
39956;SDS011;48483;44.640;7.494;2022-07-09T00:40:14;3.17;;;2.05;;
39956;SDS011;48483;44.640;7.494;2022-07-09T00:42:40;3.63;;;2.10;;
39956;SDS011;48483;44.640;7.494;2022-07-09T00:45:07;3.92;;;2.13;;
39956;SDS011;48483;44.640;7.494;2022-07-09T00:47:34;4.57;;;2.10;;
39956;SDS011;48483;44.640;7.494;2022-07-09T00:50:01;3.13;;;1.90;;
39956;SDS011;48483;44.640;7.494;2022-07-09T00:52:29;3.35;;;2.47;;
39956;SDS011;48483;44.640;7.494;2022-07-09T00:54:59;5.43;;;2.45;;
39956;SDS011;48483;44.640;7.494;2022-07-09T00:57:27;2.38;;;1.88;;
39956;SDS011;48483;44.640;7.494;2022-07-09T00:59:54;3.13;;;2.00;;
39956;SDS011;48483;44.640;7.494;2022-07-09T01:02:22;3.50;;;2.20;;
39956;SDS011;48483;44.640;7.494;2022-07-09T01:04:49;2.83;;;2.13;;
39956;SDS011;48483;44.640;7.494;2022-07-09T01:07:16;5.85;;;2.00;;
39956;SDS011;48483;44.640;7.494;2022-07-09T01:09:44;3.17;;;2.05;;
39956;SDS011;48483;44.640;7.494;2022-07-09T01:12:10;2.78;;;2.00;;
39956;SDS011;48483;44.640;7.494;2022-07-09T01:14:37;2.60;;;1.85;;
39956;SDS011;48483;44.640;7.494;2022-07-09T01:17:04;3.72;;;1.98;;
39956;SDS011;48483;44.640;7.494;2022-07-09T01:19:32;3.00;;;1.65;;
39956;SDS011;48483;44.640;7.494;2022-07-09T01:22:01;3.05;;;1.95;;
39956;SDS011;48483;44.640;7.494;2022-07-09T01:24:28;2.10;;;1.75;;
39956;SDS011;48483;44.640;7.494;2022-07-09T01:26:55;4.22;;;2.38;;
39956;SDS011;48483;44.640;7.494;2022-07-09T01:29:22;2.22;;;1.55;;
39956;SDS011;48483;44.640;7.494;2022-07-09T01:31:49;2.08;;;1.45;;
39956;SDS011;48483;44.640;7.494;2022-07-09T01:34:16;2.13;;;1.60;;
39956;SDS011;48483;44.640;7.494;2022-07-09T01:36:43;1.88;;;1.42;;
39956;SDS011;48483;44.640;7.494;2022-07-09T01:39:11;2.95;;;1.80;;
39956;SDS011;48483;44.640;7.494;2022-07-09T01:41:38;2.47;;;1.63;;
39956;SDS011;48483;44.640;7.494;2022-07-09T01:44:05;2.08;;;1.55;;
39956;SDS011;48483;44.640;7.494;2022-07-09T01:46:33;3.15;;;1.98;;
39956;SDS011;48483;44.640;7.494;2022-07-09T01:49:00;3.17;;;2.03;;
39956;SDS011;48483;44.640;7.494;2022-07-09T01:51:26;2.42;;;1.90;;
39956;SDS011;48483;44.640;7.494;2022-07-09T01:53:53;3.17;;;2.00;;
39956;SDS011;48483;44.640;7.494;2022-07-09T01:56:21;2.90;;;1.60;;
39956;SDS011;48483;44.640;7.494;2022-07-09T01:58:48;2.17;;;1.35;;
39956;SDS011;48483;44.640;7.494;2022-07-09T02:01:15;2.05;;;1.58;;
39956;SDS011;48483;44.640;7.494;2022-07-09T02:03:41;2.08;;;1.63;;
39956;SDS011;48483;44.640;7.494;2022-07-09T02:06:08;2.47;;;1.38;;
39956;SDS011;48483;44.640;7.494;2022-07-09T02:08:35;3.22;;;1.40;;
39956;SDS011;48483;44.640;7.494;2022-07-09T02:11:02;2.35;;;1.30;;
39956;SDS011;48483;44.640;7.494;2022-07-09T02:13:30;3.08;;;2.17;;
39956;SDS011;48483;44.640;7.494;2022-07-09T02:15:57;3.50;;;1.50;;
39956;SDS011;48483;44.640;7.494;2022-07-09T02:18:26;1.55;;;1.40;;
39956;SDS011;48483;44.640;7.494;2022-07-09T02:20:53;2.20;;;1.70;;
39956;SDS011;48483;44.640;7.494;2022-07-09T02:23:21;1.58;;;1.10;;
39956;SDS011;48483;44.640;7.494;2022-07-09T02:25:49;4.10;;;1.88;;
39956;SDS011;48483;44.640;7.494;2022-07-09T02:28:16;4.57;;;1.80;;
39956;SDS011;48483;44.640;7.494;2022-07-09T02:30:44;2.05;;;1.73;;
39956;SDS011;48483;44.640;7.494;2022-07-09T02:33:11;3.67;;;2.08;;
39956;SDS011;48483;44.640;7.494;2022-07-09T02:35:38;1.77;;;1.65;;
39956;SDS011;48483;44.640;7.494;2022-07-09T02:38:04;1.92;;;1.73;;
39956;SDS011;48483;44.640;7.494;2022-07-09T02:40:31;4.60;;;2.72;;
39956;SDS011;48483;44.640;7.494;2022-07-09T02:42:58;3.05;;;1.75;;
39956;SDS011;48483;44.640;7.494;2022-07-09T02:45:25;1.58;;;1.30;;
39956;SDS011;48483;44.640;7.494;2022-07-09T02:47:53;2.08;;;1.40;;
39956;SDS011;48483;44.640;7.494;2022-07-09T02:50:20;2.72;;;1.80;;
39956;SDS011;48483;44.640;7.494;2022-07-09T02:52:47;2.35;;;1.60;;
39956;SDS011;48483;44.640;7.494;2022-07-09T02:55:13;4.35;;;1.90;;
39956;SDS011;48483;44.640;7.494;2022-07-09T02:57:40;2.47;;;1.63;;
39956;SDS011;48483;44.640;7.494;2022-07-09T03:00:07;3.85;;;1.50;;
39956;SDS011;48483;44.640;7.494;2022-07-09T03:02:34;2.50;;;1.73;;
39956;SDS011;48483;44.640;7.494;2022-07-09T03:05:03;4.07;;;1.80;;
39956;SDS011;48483;44.640;7.494;2022-07-09T03:07:30;3.70;;;1.80;;
39956;SDS011;48483;44.640;7.494;2022-07-09T03:09:57;2.70;;;1.70;;
39956;SDS011;48483;44.640;7.494;2022-07-09T03:12:24;2.35;;;1.73;;
39956;SDS011;48483;44.640;7.494;2022-07-09T03:14:51;2.20;;;1.60;;
39956;SDS011;48483;44.640;7.494;2022-07-09T03:17:17;3.88;;;1.70;;
39956;SDS011;48483;44.640;7.494;2022-07-09T03:19:44;4.07;;;2.15;;
39956;SDS011;48483;44.640;7.494;2022-07-09T03:22:12;3.72;;;1.80;;
39956;SDS011;48483;44.640;7.494;2022-07-09T03:24:39;3.35;;;2.10;;
39956;SDS011;48483;44.640;7.494;2022-07-09T03:27:06;8.38;;;2.70;;
39956;SDS011;48483;44.640;7.494;2022-07-09T03:29:33;3.20;;;1.90;;
39956;SDS011;48483;44.640;7.494;2022-07-09T03:31:59;2.85;;;2.22;;
39956;SDS011;48483;44.640;7.494;2022-07-09T03:34:26;3.53;;;1.40;;
39956;SDS011;48483;44.640;7.494;2022-07-09T03:36:53;2.95;;;1.58;;
39956;SDS011;48483;44.640;7.494;2022-07-09T03:39:21;2.85;;;2.03;;
39956;SDS011;48483;44.640;7.494;2022-07-09T03:41:48;2.83;;;1.80;;
39956;SDS011;48483;44.640;7.494;2022-07-09T03:44:14;2.92;;;1.75;;
39956;SDS011;48483;44.640;7.494;2022-07-09T03:46:41;2.67;;;1.80;;
39956;SDS011;48483;44.640;7.494;2022-07-09T03:49:08;3.35;;;1.63;;
39956;SDS011;48483;44.640;7.494;2022-07-09T03:51:35;2.78;;;1.73;;
39956;SDS011;48483;44.640;7.494;2022-07-09T03:54:02;5.18;;;2.10;;
39956;SDS011;48483;44.640;7.494;2022-07-09T03:56:30;2.33;;;1.60;;
39956;SDS011;48483;44.640;7.494;2022-07-09T03:58:57;3.58;;;1.75;;
39956;SDS011;48483;44.640;7.494;2022-07-09T04:01:23;1.90;;;1.70;;
39956;SDS011;48483;44.640;7.494;2022-07-09T04:03:50;2.45;;;1.77;;
39956;SDS011;48483;44.640;7.494;2022-07-09T04:06:17;5.13;;;2.15;;
39956;SDS011;48483;44.640;7.494;2022-07-09T04:08:43;3.17;;;1.65;;
39956;SDS011;48483;44.640;7.494;2022-07-09T04:11:10;2.67;;;1.70;;
39956;SDS011;48483;44.640;7.494;2022-07-09T04:13:38;2.58;;;1.52;;
39956;SDS011;48483;44.640;7.494;2022-07-09T04:16:05;3.55;;;2.00;;
39956;SDS011;48483;44.640;7.494;2022-07-09T04:18:33;4.53;;;2.05;;
39956;SDS011;48483;44.640;7.494;2022-07-09T04:21:00;1.98;;;1.52;;
39956;SDS011;48483;44.640;7.494;2022-07-09T04:23:27;2.83;;;1.83;;
39956;SDS011;48483;44.640;7.494;2022-07-09T04:25:54;4.22;;;1.83;;
39956;SDS011;48483;44.640;7.494;2022-07-09T04:28:20;2.17;;;1.65;;
39956;SDS011;48483;44.640;7.494;2022-07-09T04:30:48;3.80;;;1.77;;
39956;SDS011;48483;44.640;7.494;2022-07-09T04:33:15;4.20;;;2.20;;
39956;SDS011;48483;44.640;7.494;2022-07-09T04:35:42;2.33;;;1.58;;
39956;SDS011;48483;44.640;7.494;2022-07-09T04:38:08;3.30;;;1.60;;
39956;SDS011;48483;44.640;7.494;2022-07-09T04:40:36;2.42;;;1.90;;
39956;SDS011;48483;44.640;7.494;2022-07-09T04:43:04;3.55;;;1.83;;
39956;SDS011;48483;44.640;7.494;2022-07-09T04:45:31;3.30;;;1.80;;
39956;SDS011;48483;44.640;7.494;2022-07-09T04:47:59;3.58;;;2.67;;
39956;SDS011;48483;44.640;7.494;2022-07-09T04:50:26;3.17;;;1.75;;
39956;SDS011;48483;44.640;7.494;2022-07-09T04:52:53;2.78;;;1.70;;
39956;SDS011;48483;44.640;7.494;2022-07-09T04:55:20;2.28;;;1.67;;
39956;SDS011;48483;44.640;7.494;2022-07-09T04:57:47;4.82;;;1.75;;
39956;SDS011;48483;44.640;7.494;2022-07-09T05:00:14;3.38;;;2.00;;
39956;SDS011;48483;44.640;7.494;2022-07-09T05:02:44;2.97;;;1.63;;
39956;SDS011;48483;44.640;7.494;2022-07-09T05:05:12;4.32;;;1.98;;
39956;SDS011;48483;44.640;7.494;2022-07-09T05:07:39;4.55;;;1.70;;
39956;SDS011;48483;44.640;7.494;2022-07-09T05:10:09;1.67;;;1.23;;
39956;SDS011;48483;44.640;7.494;2022-07-09T05:12:36;3.88;;;1.67;;
39956;SDS011;48483;44.640;7.494;2022-07-09T05:15:03;2.28;;;1.70;;
39956;SDS011;48483;44.640;7.494;2022-07-09T05:17:33;3.88;;;1.45;;
39956;SDS011;48483;44.640;7.494;2022-07-09T05:20:00;3.33;;;1.80;;
39956;SDS011;48483;44.640;7.494;2022-07-09T05:22:31;2.55;;;1.77;;
39956;SDS011;48483;44.640;7.494;2022-07-09T05:24:58;10.30;;;1.77;;
39956;SDS011;48483;44.640;7.494;2022-07-09T05:27:25;3.30;;;1.60;;
39956;SDS011;48483;44.640;7.494;2022-07-09T05:29:52;2.95;;;1.77;;
39956;SDS011;48483;44.640;7.494;2022-07-09T05:32:19;3.08;;;1.70;;
39956;SDS011;48483;44.640;7.494;2022-07-09T05:34:46;4.05;;;1.95;;
39956;SDS011;48483;44.640;7.494;2022-07-09T05:37:12;2.80;;;1.70;;
39956;SDS011;48483;44.640;7.494;2022-07-09T05:39:41;3.42;;;2.03;;
39956;SDS011;48483;44.640;7.494;2022-07-09T05:42:08;3.55;;;2.13;;
39956;SDS011;48483;44.640;7.494;2022-07-09T05:44:34;4.53;;;2.10;;
39956;SDS011;48483;44.640;7.494;2022-07-09T05:47:01;3.10;;;2.00;;
39956;SDS011;48483;44.640;7.494;2022-07-09T05:49:28;8.35;;;4.03;;
39956;SDS011;48483;44.640;7.494;2022-07-09T05:51:55;4.40;;;2.15;;
39956;SDS011;48483;44.640;7.494;2022-07-09T05:54:22;3.28;;;2.10;;
39956;SDS011;48483;44.640;7.494;2022-07-09T05:56:50;5.82;;;2.33;;
39956;SDS011;48483;44.640;7.494;2022-07-09T05:59:17;3.95;;;2.15;;
39956;SDS011;48483;44.640;7.494;2022-07-09T06:01:44;4.07;;;2.60;;
39956;SDS011;48483;44.640;7.494;2022-07-09T06:04:10;4.15;;;2.13;;
39956;SDS011;48483;44.640;7.494;2022-07-09T06:06:37;4.00;;;2.33;;
39956;SDS011;48483;44.640;7.494;2022-07-09T06:09:04;14.52;;;3.75;;
39956;SDS011;48483;44.640;7.494;2022-07-09T06:11:31;7.07;;;2.70;;
39956;SDS011;48483;44.640;7.494;2022-07-09T06:13:59;5.22;;;2.97;;
39956;SDS011;48483;44.640;7.494;2022-07-09T06:16:26;2.65;;;2.03;;
39956;SDS011;48483;44.640;7.494;2022-07-09T06:18:52;4.97;;;2.45;;
39956;SDS011;48483;44.640;7.494;2022-07-09T06:21:19;5.22;;;2.85;;
39956;SDS011;48483;44.640;7.494;2022-07-09T06:23:46;5.38;;;2.90;;
39956;SDS011;48483;44.640;7.494;2022-07-09T06:26:13;7.13;;;2.70;;
39956;SDS011;48483;44.640;7.494;2022-07-09T06:28:40;6.68;;;2.60;;
39956;SDS011;48483;44.640;7.494;2022-07-09T06:31:08;5.93;;;2.53;;
39956;SDS011;48483;44.640;7.494;2022-07-09T06:33:35;5.78;;;3.67;;
39956;SDS011;48483;44.640;7.494;2022-07-09T06:36:01;5.82;;;3.10;;
39956;SDS011;48483;44.640;7.494;2022-07-09T06:38:28;4.30;;;3.22;;
39956;SDS011;48483;44.640;7.494;2022-07-09T06:40:55;7.55;;;4.78;;
39956;SDS011;48483;44.640;7.494;2022-07-09T06:43:22;6.25;;;2.72;;
39956;SDS011;48483;44.640;7.494;2022-07-09T06:45:52;5.97;;;3.85;;
39956;SDS011;48483;44.640;7.494;2022-07-09T06:48:20;6.10;;;3.53;;
39956;SDS011;48483;44.640;7.494;2022-07-09T06:50:47;5.53;;;3.88;;
39956;SDS011;48483;44.640;7.494;2022-07-09T06:53:14;4.60;;;3.97;;
39956;SDS011;48483;44.640;7.494;2022-07-09T06:55:42;7.28;;;3.10;;
39956;SDS011;48483;44.640;7.494;2022-07-09T06:58:09;8.57;;;4.22;;
39956;SDS011;48483;44.640;7.494;2022-07-09T07:00:36;7.18;;;4.20;;
39956;SDS011;48483;44.640;7.494;2022-07-09T07:03:02;4.53;;;3.70;;
39956;SDS011;48483;44.640;7.494;2022-07-09T07:05:31;5.88;;;4.30;;
39956;SDS011;48483;44.640;7.494;2022-07-09T07:07:57;11.10;;;4.80;;
39956;SDS011;48483;44.640;7.494;2022-07-09T07:10:24;12.07;;;6.18;;
39956;SDS011;48483;44.640;7.494;2022-07-09T07:12:51;8.18;;;4.50;;
39956;SDS011;48483;44.640;7.494;2022-07-09T07:15:19;7.43;;;5.28;;
39956;SDS011;48483;44.640;7.494;2022-07-09T07:17:46;7.30;;;5.43;;
39956;SDS011;48483;44.640;7.494;2022-07-09T07:20:14;9.50;;;5.13;;
39956;SDS011;48483;44.640;7.494;2022-07-09T07:22:44;8.20;;;5.90;;
39956;SDS011;48483;44.640;7.494;2022-07-09T07:25:11;8.20;;;5.10;;
39956;SDS011;48483;44.640;7.494;2022-07-09T07:27:38;9.27;;;6.63;;
39956;SDS011;48483;44.640;7.494;2022-07-09T07:30:05;11.02;;;6.25;;
39956;SDS011;48483;44.640;7.494;2022-07-09T07:32:32;7.40;;;5.97;;
39956;SDS011;48483;44.640;7.494;2022-07-09T07:34:59;10.55;;;8.52;;
39956;SDS011;48483;44.640;7.494;2022-07-09T07:37:28;11.00;;;7.20;;
39956;SDS011;48483;44.640;7.494;2022-07-09T07:39:56;9.32;;;7.45;;
39956;SDS011;48483;44.640;7.494;2022-07-09T07:42:23;9.93;;;6.68;;
39956;SDS011;48483;44.640;7.494;2022-07-09T07:44:50;8.43;;;6.13;;
39956;SDS011;48483;44.640;7.494;2022-07-09T07:47:17;10.20;;;5.70;;
39956;SDS011;48483;44.640;7.494;2022-07-09T07:49:43;9.38;;;6.90;;
39956;SDS011;48483;44.640;7.494;2022-07-09T07:52:10;12.15;;;6.68;;
39956;SDS011;48483;44.640;7.494;2022-07-09T07:54:38;10.13;;;6.55;;
39956;SDS011;48483;44.640;7.494;2022-07-09T07:57:06;9.55;;;6.80;;
39956;SDS011;48483;44.640;7.494;2022-07-09T07:59:33;10.32;;;6.55;;
39956;SDS011;48483;44.640;7.494;2022-07-09T08:01:59;11.02;;;6.80;;
39956;SDS011;48483;44.640;7.494;2022-07-09T08:04:26;10.73;;;8.07;;
39956;SDS011;48483;44.640;7.494;2022-07-09T08:06:53;12.15;;;7.32;;
39956;SDS011;48483;44.640;7.494;2022-07-09T08:09:20;8.70;;;6.15;;
39956;SDS011;48483;44.640;7.494;2022-07-09T08:11:46;8.40;;;5.38;;
39956;SDS011;48483;44.640;7.494;2022-07-09T08:14:15;12.20;;;6.13;;
39956;SDS011;48483;44.640;7.494;2022-07-09T08:16:41;9.90;;;5.60;;
39956;SDS011;48483;44.640;7.494;2022-07-09T08:19:08;8.02;;;5.10;;
39956;SDS011;48483;44.640;7.494;2022-07-09T08:21:34;14.50;;;5.45;;
39956;SDS011;48483;44.640;7.494;2022-07-09T08:24:01;6.65;;;5.20;;
39956;SDS011;48483;44.640;7.494;2022-07-09T08:26:30;8.52;;;5.03;;
39956;SDS011;48483;44.640;7.494;2022-07-09T08:28:57;9.10;;;6.13;;
39956;SDS011;48483;44.640;7.494;2022-07-09T08:31:25;10.18;;;6.25;;
39956;SDS011;48483;44.640;7.494;2022-07-09T08:33:52;12.30;;;5.88;;
39956;SDS011;48483;44.640;7.494;2022-07-09T08:36:19;9.05;;;6.78;;
39956;SDS011;48483;44.640;7.494;2022-07-09T08:38:46;7.95;;;5.15;;
39956;SDS011;48483;44.640;7.494;2022-07-09T08:41:15;7.57;;;5.07;;
39956;SDS011;48483;44.640;7.494;2022-07-09T08:46:15;10.02;;;4.20;;
39956;SDS011;48483;44.640;7.494;2022-07-09T08:48:43;9.15;;;3.50;;
39956;SDS011;48483;44.640;7.494;2022-07-09T08:51:11;7.05;;;4.25;;
39956;SDS011;48483;44.640;7.494;2022-07-09T08:53:42;8.40;;;3.22;;
39956;SDS011;48483;44.640;7.494;2022-07-09T08:56:10;8.90;;;3.40;;
39956;SDS011;48483;44.640;7.494;2022-07-09T08:58:38;5.50;;;3.17;;
39956;SDS011;48483;44.640;7.494;2022-07-09T09:01:05;4.97;;;3.58;;
39956;SDS011;48483;44.640;7.494;2022-07-09T09:03:32;7.05;;;3.45;;
39956;SDS011;48483;44.640;7.494;2022-07-09T09:06:02;8.25;;;2.65;;
39956;SDS011;48483;44.640;7.494;2022-07-09T09:08:34;4.90;;;2.57;;
39956;SDS011;48483;44.640;7.494;2022-07-09T09:11:01;15.10;;;3.50;;
39956;SDS011;48483;44.640;7.494;2022-07-09T09:13:28;4.70;;;2.45;;
39956;SDS011;48483;44.640;7.494;2022-07-09T09:16:03;3.47;;;2.33;;
39956;SDS011;48483;44.640;7.494;2022-07-09T09:18:33;7.50;;;2.67;;
39956;SDS011;48483;44.640;7.494;2022-07-09T09:21:03;4.47;;;2.33;;
39956;SDS011;48483;44.640;7.494;2022-07-09T09:23:38;4.90;;;2.67;;
39956;SDS011;48483;44.640;7.494;2022-07-09T09:26:12;6.18;;;2.70;;
39956;SDS011;48483;44.640;7.494;2022-07-09T09:28:47;4.32;;;2.50;;
39956;SDS011;48483;44.640;7.494;2022-07-09T09:31:19;6.30;;;3.35;;
39956;SDS011;48483;44.640;7.494;2022-07-09T09:33:50;3.25;;;2.25;;
39956;SDS011;48483;44.640;7.494;2022-07-09T09:36:31;3.58;;;2.78;;
39956;SDS011;48483;44.640;7.494;2022-07-09T09:39:08;5.22;;;2.65;;
39956;SDS011;48483;44.640;7.494;2022-07-09T09:41:36;4.72;;;2.40;;
39956;SDS011;48483;44.640;7.494;2022-07-09T09:44:04;5.00;;;2.45;;
39956;SDS011;48483;44.640;7.494;2022-07-09T09:46:34;7.30;;;2.60;;
39956;SDS011;48483;44.640;7.494;2022-07-09T09:49:03;4.50;;;2.20;;
39956;SDS011;48483;44.640;7.494;2022-07-09T09:51:35;6.40;;;2.35;;
39956;SDS011;48483;44.640;7.494;2022-07-09T09:54:04;6.78;;;2.60;;
39956;SDS011;48483;44.640;7.494;2022-07-09T09:56:31;4.28;;;2.13;;
39956;SDS011;48483;44.640;7.494;2022-07-09T09:59:00;3.72;;;2.10;;
39956;SDS011;48483;44.640;7.494;2022-07-09T10:01:27;3.47;;;1.85;;
39956;SDS011;48483;44.640;7.494;2022-07-09T10:03:55;5.10;;;2.83;;
39956;SDS011;48483;44.640;7.494;2022-07-09T10:06:22;3.03;;;2.17;;
39956;SDS011;48483;44.640;7.494;2022-07-09T10:08:52;6.28;;;3.17;;
39956;SDS011;48483;44.640;7.494;2022-07-09T10:11:20;6.38;;;3.80;;
39956;SDS011;48483;44.640;7.494;2022-07-09T10:13:50;6.47;;;4.00;;
39956;SDS011;48483;44.640;7.494;2022-07-09T10:16:18;8.23;;;5.13;;
39956;SDS011;48483;44.640;7.494;2022-07-09T10:18:51;8.82;;;6.32;;
39956;SDS011;48483;44.640;7.494;2022-07-09T10:21:30;7.57;;;4.60;;
39956;SDS011;48483;44.640;7.494;2022-07-09T10:24:03;8.63;;;5.55;;
39956;SDS011;48483;44.640;7.494;2022-07-09T10:26:43;6.35;;;3.75;;
39956;SDS011;48483;44.640;7.494;2022-07-09T10:29:19;9.32;;;4.65;;
39956;SDS011;48483;44.640;7.494;2022-07-09T10:31:47;5.50;;;4.45;;
39956;SDS011;48483;44.640;7.494;2022-07-09T10:34:18;6.90;;;4.90;;
39956;SDS011;48483;44.640;7.494;2022-07-09T10:37:04;9.37;;;7.70;;
39956;SDS011;48483;44.640;7.494;2022-07-09T10:39:33;3.75;;;2.83;;
39956;SDS011;48483;44.640;7.494;2022-07-09T10:42:00;5.30;;;2.65;;
39956;SDS011;48483;44.640;7.494;2022-07-09T10:44:32;5.43;;;3.88;;
39956;SDS011;48483;44.640;7.494;2022-07-09T10:47:01;4.22;;;2.15;;
39956;SDS011;48483;44.640;7.494;2022-07-09T10:49:28;7.70;;;5.30;;
39956;SDS011;48483;44.640;7.494;2022-07-09T10:51:55;9.30;;;3.63;;
39956;SDS011;48483;44.640;7.494;2022-07-09T10:54:23;3.38;;;2.63;;
39956;SDS011;48483;44.640;7.494;2022-07-09T10:56:52;4.03;;;2.40;;
39956;SDS011;48483;44.640;7.494;2022-07-09T10:59:21;7.72;;;2.40;;
39956;SDS011;48483;44.640;7.494;2022-07-09T11:01:48;3.17;;;1.88;;
39956;SDS011;48483;44.640;7.494;2022-07-09T11:04:25;4.20;;;1.92;;
39956;SDS011;48483;44.640;7.494;2022-07-09T11:06:53;2.45;;;1.67;;
39956;SDS011;48483;44.640;7.494;2022-07-09T11:09:20;4.70;;;2.13;;
39956;SDS011;48483;44.640;7.494;2022-07-09T11:11:47;3.28;;;2.10;;
39956;SDS011;48483;44.640;7.494;2022-07-09T11:14:15;6.22;;;2.28;;
39956;SDS011;48483;44.640;7.494;2022-07-09T11:16:52;5.10;;;2.35;;
39956;SDS011;48483;44.640;7.494;2022-07-09T11:19:19;4.53;;;2.30;;
39956;SDS011;48483;44.640;7.494;2022-07-09T11:21:47;6.97;;;3.17;;
39956;SDS011;48483;44.640;7.494;2022-07-09T11:24:15;4.43;;;2.35;;
39956;SDS011;48483;44.640;7.494;2022-07-09T11:26:45;3.58;;;1.80;;
39956;SDS011;48483;44.640;7.494;2022-07-09T11:29:13;7.10;;;1.95;;
39956;SDS011;48483;44.640;7.494;2022-07-09T11:31:50;4.13;;;2.03;;
39956;SDS011;48483;44.640;7.494;2022-07-09T11:34:17;3.55;;;1.98;;
39956;SDS011;48483;44.640;7.494;2022-07-09T11:36:45;2.92;;;2.20;;
39956;SDS011;48483;44.640;7.494;2022-07-09T11:39:22;3.08;;;2.70;;
39956;SDS011;48483;44.640;7.494;2022-07-09T11:41:50;3.08;;;1.60;;
39956;SDS011;48483;44.640;7.494;2022-07-09T11:44:21;4.20;;;1.90;;
39956;SDS011;48483;44.640;7.494;2022-07-09T11:47:03;3.45;;;1.50;;
39956;SDS011;48483;44.640;7.494;2022-07-09T11:49:34;3.42;;;1.67;;
39956;SDS011;48483;44.640;7.494;2022-07-09T11:52:03;3.75;;;2.00;;
39956;SDS011;48483;44.640;7.494;2022-07-09T11:54:30;2.85;;;1.70;;
39956;SDS011;48483;44.640;7.494;2022-07-09T11:56:57;4.32;;;1.92;;
39956;SDS011;48483;44.640;7.494;2022-07-09T11:59:27;3.38;;;1.98;;
39956;SDS011;48483;44.640;7.494;2022-07-09T12:01:57;3.10;;;1.92;;
39956;SDS011;48483;44.640;7.494;2022-07-09T12:04:29;4.72;;;2.22;;
39956;SDS011;48483;44.640;7.494;2022-07-09T12:06:59;3.53;;;2.28;;
39956;SDS011;48483;44.640;7.494;2022-07-09T12:09:29;3.53;;;1.95;;
39956;SDS011;48483;44.640;7.494;2022-07-09T12:11:57;4.18;;;2.72;;
39956;SDS011;48483;44.640;7.494;2022-07-09T12:14:24;3.47;;;1.92;;
39956;SDS011;48483;44.640;7.494;2022-07-09T12:16:51;3.70;;;2.30;;
39956;SDS011;48483;44.640;7.494;2022-07-09T12:19:17;2.70;;;2.15;;
39956;SDS011;48483;44.640;7.494;2022-07-09T12:21:46;3.80;;;1.90;;
39956;SDS011;48483;44.640;7.494;2022-07-09T12:24:13;5.63;;;2.08;;
39956;SDS011;48483;44.640;7.494;2022-07-09T12:26:40;4.50;;;2.13;;
39956;SDS011;48483;44.640;7.494;2022-07-09T12:29:06;3.83;;;2.13;;
39956;SDS011;48483;44.640;7.494;2022-07-09T12:31:33;2.78;;;2.05;;
39956;SDS011;48483;44.640;7.494;2022-07-09T12:34:03;7.13;;;1.70;;
39956;SDS011;48483;44.640;7.494;2022-07-09T12:36:31;8.00;;;2.45;;
39956;SDS011;48483;44.640;7.494;2022-07-09T12:38:59;5.80;;;2.28;;
39956;SDS011;48483;44.640;7.494;2022-07-09T12:41:26;5.65;;;2.35;;
39956;SDS011;48483;44.640;7.494;2022-07-09T12:43:53;4.75;;;1.90;;
39956;SDS011;48483;44.640;7.494;2022-07-09T12:46:19;3.60;;;1.60;;
39956;SDS011;48483;44.640;7.494;2022-07-09T12:48:46;3.65;;;1.65;;
39956;SDS011;48483;44.640;7.494;2022-07-09T12:51:13;2.97;;;1.70;;
39956;SDS011;48483;44.640;7.494;2022-07-09T12:53:40;4.10;;;2.00;;
39956;SDS011;48483;44.640;7.494;2022-07-09T12:56:08;2.30;;;1.70;;
39956;SDS011;48483;44.640;7.494;2022-07-09T12:58:35;2.95;;;1.75;;
39956;SDS011;48483;44.640;7.494;2022-07-09T13:01:02;1.70;;;1.42;;
39956;SDS011;48483;44.640;7.494;2022-07-09T13:03:28;4.00;;;1.75;;
39956;SDS011;48483;44.640;7.494;2022-07-09T13:05:56;2.75;;;1.80;;
39956;SDS011;48483;44.640;7.494;2022-07-09T13:08:22;6.63;;;2.00;;
39956;SDS011;48483;44.640;7.494;2022-07-09T13:10:50;4.07;;;1.77;;
39956;SDS011;48483;44.640;7.494;2022-07-09T13:13:18;3.90;;;1.55;;
39956;SDS011;48483;44.640;7.494;2022-07-09T13:15:45;2.33;;;1.73;;
39956;SDS011;48483;44.640;7.494;2022-07-09T13:18:12;5.32;;;3.30;;
39956;SDS011;48483;44.640;7.494;2022-07-09T13:20:40;4.10;;;1.73;;
39956;SDS011;48483;44.640;7.494;2022-07-09T13:23:07;2.30;;;1.60;;
39956;SDS011;48483;44.640;7.494;2022-07-09T13:25:34;3.25;;;1.83;;
39956;SDS011;48483;44.640;7.494;2022-07-09T13:28:01;2.55;;;1.80;;
39956;SDS011;48483;44.640;7.494;2022-07-09T13:30:29;3.60;;;1.60;;
39956;SDS011;48483;44.640;7.494;2022-07-09T13:32:56;9.35;;;2.00;;
39956;SDS011;48483;44.640;7.494;2022-07-09T13:35:23;3.30;;;1.73;;
39956;SDS011;48483;44.640;7.494;2022-07-09T13:37:50;4.88;;;1.63;;
39956;SDS011;48483;44.640;7.494;2022-07-09T13:40:17;3.92;;;2.00;;
39956;SDS011;48483;44.640;7.494;2022-07-09T13:42:43;2.65;;;1.67;;
39956;SDS011;48483;44.640;7.494;2022-07-09T13:45:10;4.85;;;1.80;;
39956;SDS011;48483;44.640;7.494;2022-07-09T13:47:38;4.93;;;2.00;;
39956;SDS011;48483;44.640;7.494;2022-07-09T13:50:06;3.78;;;1.98;;
39956;SDS011;48483;44.640;7.494;2022-07-09T13:52:33;4.53;;;1.70;;
39956;SDS011;48483;44.640;7.494;2022-07-09T13:54:59;7.03;;;2.05;;
39956;SDS011;48483;44.640;7.494;2022-07-09T13:57:26;6.05;;;2.00;;
39956;SDS011;48483;44.640;7.494;2022-07-09T13:59:53;7.28;;;2.28;;
39956;SDS011;48483;44.640;7.494;2022-07-09T14:02:20;10.70;;;2.33;;
39956;SDS011;48483;44.640;7.494;2022-07-09T14:04:48;6.03;;;2.10;;
39956;SDS011;48483;44.640;7.494;2022-07-09T14:07:15;4.65;;;2.40;;
39956;SDS011;48483;44.640;7.494;2022-07-09T14:09:42;4.75;;;1.92;;
39956;SDS011;48483;44.640;7.494;2022-07-09T14:12:09;8.07;;;2.35;;
39956;SDS011;48483;44.640;7.494;2022-07-09T14:14:35;3.65;;;2.15;;
39956;SDS011;48483;44.640;7.494;2022-07-09T14:17:02;4.28;;;1.83;;
39956;SDS011;48483;44.640;7.494;2022-07-09T14:19:30;4.22;;;1.90;;
39956;SDS011;48483;44.640;7.494;2022-07-09T14:21:58;6.32;;;2.30;;
39956;SDS011;48483;44.640;7.494;2022-07-09T14:24:24;2.90;;;2.20;;
39956;SDS011;48483;44.640;7.494;2022-07-09T14:26:51;7.65;;;2.33;;
39956;SDS011;48483;44.640;7.494;2022-07-09T14:29:18;3.25;;;2.05;;
39956;SDS011;48483;44.640;7.494;2022-07-09T14:31:45;2.25;;;2.05;;
39956;SDS011;48483;44.640;7.494;2022-07-09T14:34:12;2.75;;;2.10;;
39956;SDS011;48483;44.640;7.494;2022-07-09T14:36:38;4.50;;;3.42;;
39956;SDS011;48483;44.640;7.494;2022-07-09T14:39:06;9.05;;;4.32;;
39956;SDS011;48483;44.640;7.494;2022-07-09T14:41:33;11.80;;;8.57;;
39956;SDS011;48483;44.640;7.494;2022-07-09T14:44:01;10.82;;;9.73;;
39956;SDS011;48483;44.640;7.494;2022-07-09T14:46:28;8.93;;;5.97;;
39956;SDS011;48483;44.640;7.494;2022-07-09T14:48:55;8.52;;;4.80;;
39956;SDS011;48483;44.640;7.494;2022-07-09T14:51:21;8.73;;;6.85;;
39956;SDS011;48483;44.640;7.494;2022-07-09T14:53:48;6.75;;;5.03;;